createdAt,value
2024-04-21T00:01:39.170Z,66.99
2024-04-21T00:04:06.223Z,67.35
2024-04-21T00:06:33.191Z,67.38
2024-04-21T00:09:00.074Z,67.44
2024-04-21T00:11:26.981Z,67.34
2024-04-21T00:13:53.900Z,67.51
2024-04-21T00:16:21.130Z,67.65
2024-04-21T00:18:48.081Z,67.49
2024-04-21T00:21:15.213Z,67.67
2024-04-21T00:23:42.300Z,67.58
2024-04-21T00:26:09.199Z,67.52
2024-04-21T00:28:36.112Z,67.50
2024-04-21T00:31:03.135Z,67.59
2024-04-21T00:33:30.312Z,67.61
2024-04-21T00:35:57.256Z,67.91
2024-04-21T00:38:24.135Z,67.78
2024-04-21T00:40:51.052Z,67.78
2024-04-21T00:43:18.052Z,67.68
2024-04-21T00:45:48.546Z,67.74
2024-04-21T00:48:16.288Z,67.85
2024-04-21T00:50:56.510Z,67.80
2024-04-21T00:53:24.812Z,67.85
2024-04-21T00:55:56.084Z,67.94
2024-04-21T00:58:24.425Z,67.93
2024-04-21T01:00:52.034Z,67.79
2024-04-21T01:03:19.520Z,68.01
2024-04-21T01:05:47.217Z,68.04
2024-04-21T01:08:14.755Z,68.10
2024-04-21T01:10:41.699Z,68.26
2024-04-21T01:13:14.846Z,68.55
2024-04-21T01:15:41.862Z,68.44
2024-04-21T01:21:03.560Z,68.46
2024-04-21T01:23:30.584Z,68.29
2024-04-21T01:25:57.706Z,68.31
2024-04-21T01:28:24.977Z,68.44
2024-04-21T01:30:51.880Z,68.41
2024-04-21T01:33:18.862Z,68.50
2024-04-21T01:35:47.666Z,68.34
2024-04-21T01:38:14.503Z,68.29
2024-04-21T01:40:41.604Z,68.36
2024-04-21T01:43:08.589Z,68.34
2024-04-21T01:45:35.929Z,68.65
2024-04-21T01:48:03.868Z,68.49
2024-04-21T01:50:30.865Z,68.60
2024-04-21T01:52:57.780Z,68.81
2024-04-21T01:55:24.755Z,68.59
2024-04-21T01:57:54.267Z,68.64
2024-04-21T02:00:21.359Z,68.53
2024-04-21T02:02:48.251Z,68.67
2024-04-21T02:05:16.016Z,68.69
2024-04-21T02:07:42.905Z,68.81
2024-04-21T02:10:10.090Z,68.91
2024-04-21T02:12:37.052Z,68.68
2024-04-21T02:15:05.030Z,68.77
2024-04-21T02:17:32.025Z,68.93
2024-04-21T02:19:58.893Z,68.85
2024-04-21T02:22:26.094Z,68.80
2024-04-21T02:24:53.105Z,68.87
2024-04-21T02:27:20.072Z,68.94
2024-04-21T02:29:47.116Z,68.84
2024-04-21T02:32:14.110Z,68.95
2024-04-21T02:34:41.002Z,69.03
2024-04-21T02:37:08.131Z,69.06
2024-04-21T02:39:35.121Z,68.93
2024-04-21T02:42:02.074Z,69.09
2024-04-21T02:44:29.032Z,69.11
2024-04-21T02:46:56.162Z,69.00
2024-04-21T02:49:23.182Z,69.06
2024-04-21T02:51:50.143Z,69.16
2024-04-21T02:54:17.301Z,69.22
2024-04-21T02:56:44.205Z,69.36
2024-04-21T02:59:11.065Z,69.32
2024-04-21T03:01:38.207Z,69.52
2024-04-21T03:04:05.402Z,69.36
2024-04-21T03:06:32.399Z,69.48
2024-04-21T03:08:59.434Z,69.27
2024-04-21T03:11:26.665Z,69.34
2024-04-21T03:13:53.711Z,69.48
2024-04-21T03:16:20.786Z,69.32
2024-04-21T03:18:47.813Z,69.40
2024-04-21T03:21:14.942Z,69.67
2024-04-21T03:23:41.800Z,69.71
2024-04-21T03:26:08.792Z,69.50
2024-04-21T03:28:35.828Z,69.45
2024-04-21T03:31:02.849Z,69.59
2024-04-21T03:33:30.021Z,69.46
2024-04-21T03:36:09.916Z,69.55
2024-04-21T03:38:38.346Z,69.78
2024-04-21T03:41:06.308Z,69.80
2024-04-21T03:43:33.350Z,69.50
2024-04-21T03:46:00.352Z,69.43
2024-04-21T03:48:27.504Z,69.36
2024-04-21T03:50:54.720Z,69.51
2024-04-21T03:53:23.219Z,69.60
2024-04-21T03:55:50.611Z,69.42
2024-04-21T03:58:17.775Z,69.59
2024-04-21T04:00:48.967Z,69.43
2024-04-21T04:03:16.969Z,69.61
2024-04-21T04:05:47.618Z,69.62
2024-04-21T04:08:14.535Z,69.51
2024-04-21T04:10:43.646Z,69.55
2024-04-21T04:13:10.986Z,69.74
2024-04-21T04:15:38.690Z,69.78
2024-04-21T04:18:05.764Z,69.92
2024-04-21T04:20:35.164Z,70.01
2024-04-21T04:23:03.497Z,69.97
2024-04-21T04:25:30.392Z,70.26
2024-04-21T04:27:57.801Z,70.10
2024-04-21T04:30:24.756Z,70.26
2024-04-21T04:32:51.697Z,70.58
2024-04-21T04:35:18.690Z,70.54
2024-04-21T04:37:45.664Z,70.56
2024-04-21T04:40:12.960Z,70.68
2024-04-21T04:42:39.907Z,70.61
2024-04-21T04:45:07.272Z,70.66
2024-04-21T04:47:34.267Z,70.90
2024-04-21T04:50:01.286Z,70.68
2024-04-21T04:52:28.226Z,70.78
2024-04-21T04:54:55.207Z,70.87
2024-04-21T04:57:22.867Z,70.91
2024-04-21T04:59:49.765Z,71.02
2024-04-21T05:02:16.676Z,70.82
2024-04-21T05:04:43.945Z,71.13
2024-04-21T05:07:14.191Z,71.17
2024-04-21T05:09:41.614Z,71.05
2024-04-21T05:12:08.820Z,71.34
2024-04-21T05:14:35.705Z,71.15
2024-04-21T05:17:03.077Z,71.32
2024-04-21T05:19:30.081Z,71.21
2024-04-21T05:21:57.300Z,71.60
2024-04-21T05:24:24.221Z,71.53
2024-04-21T05:26:51.325Z,71.69
2024-04-21T05:29:18.232Z,72.06
2024-04-21T05:31:45.187Z,72.04
2024-04-21T05:34:13.447Z,72.27
2024-04-21T05:36:40.355Z,72.40
2024-04-21T05:39:07.494Z,72.47
2024-04-21T05:41:34.458Z,72.47
2024-04-21T05:44:02.039Z,72.83
2024-04-21T05:46:28.911Z,73.34
2024-04-21T05:48:55.887Z,73.24
2024-04-21T05:51:22.851Z,73.32
2024-04-21T05:53:49.726Z,73.45
2024-04-21T05:56:17.550Z,73.47
2024-04-21T05:58:44.486Z,73.52
2024-04-21T06:01:11.599Z,73.92
2024-04-21T06:03:38.894Z,73.84
2024-04-21T06:06:07.883Z,73.93
2024-04-21T06:08:35.397Z,74.03
2024-04-21T06:11:02.611Z,73.91
2024-04-21T06:13:29.786Z,73.85
2024-04-21T06:15:56.746Z,73.67
2024-04-21T06:18:23.953Z,73.48
2024-04-21T06:20:50.983Z,73.34
2024-04-21T06:23:19.280Z,72.74
2024-04-21T06:25:46.147Z,72.39
2024-04-21T06:28:13.230Z,72.06
2024-04-21T06:30:42.347Z,72.00
2024-04-21T06:33:09.603Z,71.64
2024-04-21T06:35:36.566Z,71.20
2024-04-21T06:38:03.708Z,71.17
2024-04-21T06:40:31.460Z,70.88
2024-04-21T06:42:58.637Z,70.08
2024-04-21T06:45:25.593Z,69.64
2024-04-21T06:47:52.648Z,69.07
2024-04-21T06:50:19.651Z,68.64
2024-04-21T06:52:46.617Z,68.08
2024-04-21T06:55:13.520Z,67.52
2024-04-21T06:57:42.369Z,66.88
2024-04-21T07:00:09.815Z,66.38
2024-04-21T07:02:36.863Z,65.52
2024-04-21T07:05:04.782Z,64.44
2024-04-21T07:07:31.715Z,63.88
2024-04-21T07:09:58.863Z,63.04
2024-04-21T07:12:25.836Z,62.31
2024-04-21T07:14:52.767Z,61.93
2024-04-21T07:17:19.652Z,61.27
2024-04-21T07:19:46.587Z,60.35
2024-04-21T07:22:13.619Z,59.58
2024-04-21T07:24:40.697Z,58.48
2024-04-21T07:27:07.578Z,57.20
2024-04-21T07:29:34.599Z,56.83
2024-04-21T07:32:02.157Z,56.06
2024-04-21T07:34:29.746Z,55.16
2024-04-21T07:36:56.776Z,54.81
2024-04-21T07:39:23.905Z,55.36
2024-04-21T07:41:50.834Z,54.74
2024-04-21T07:44:17.798Z,53.93
2024-04-21T07:46:44.704Z,53.55
2024-04-21T07:49:11.894Z,53.29
2024-04-21T07:51:38.936Z,52.96
2024-04-21T07:54:07.897Z,52.72
2024-04-21T07:56:34.802Z,51.63
2024-04-21T07:59:01.788Z,50.51
2024-04-21T08:01:28.939Z,49.93
2024-04-21T08:03:55.876Z,49.02
2024-04-21T08:06:23.636Z,49.06
2024-04-21T08:08:57.328Z,48.44
2024-04-21T08:11:27.919Z,47.83
2024-04-21T08:13:55.007Z,47.37
2024-04-21T08:16:21.942Z,46.55
2024-04-21T08:18:49.148Z,46.28
2024-04-21T08:21:19.218Z,45.86
2024-04-21T08:23:46.138Z,46.00
2024-04-21T08:26:12.987Z,45.75
2024-04-21T08:28:39.927Z,45.30
2024-04-21T08:31:06.894Z,45.62
2024-04-21T08:33:33.880Z,45.43
2024-04-21T08:36:00.907Z,45.02
2024-04-21T08:38:29.567Z,44.52
2024-04-21T08:40:57.437Z,44.40
2024-04-21T08:43:26.208Z,44.42
2024-04-21T08:45:57.325Z,44.36
2024-04-21T08:48:27.150Z,44.37
2024-04-21T08:50:54.382Z,44.04
2024-04-21T08:53:21.414Z,43.81
2024-04-21T08:55:50.330Z,42.67
2024-04-21T08:58:18.342Z,42.36
2024-04-21T09:00:47.006Z,42.26
2024-04-21T09:03:17.808Z,42.30
2024-04-21T09:05:51.107Z,42.17
2024-04-21T09:08:18.082Z,42.11
2024-04-21T09:10:45.114Z,41.87
2024-04-21T09:13:12.304Z,41.90
2024-04-21T09:15:40.216Z,41.32
2024-04-21T09:18:08.275Z,40.76
2024-04-21T09:20:38.323Z,40.59
2024-04-21T09:23:08.533Z,40.49
2024-04-21T09:25:37.597Z,40.00
2024-04-21T09:28:05.546Z,39.75
2024-04-21T09:30:32.552Z,39.72
2024-04-21T09:33:00.043Z,39.27
2024-04-21T09:35:27.229Z,38.92
2024-04-21T09:37:54.812Z,38.25
2024-04-21T09:40:23.357Z,38.54
2024-04-21T09:42:51.400Z,38.45
2024-04-21T09:45:21.822Z,37.13
2024-04-21T09:47:49.614Z,36.92
2024-04-21T09:50:17.557Z,36.62
2024-04-21T09:52:48.660Z,36.18
2024-04-21T09:55:16.157Z,36.41
2024-04-21T09:57:44.990Z,35.99
2024-04-21T10:00:16.669Z,35.51
2024-04-21T10:02:48.742Z,34.86
2024-04-21T10:05:20.024Z,34.14
2024-04-21T10:07:51.478Z,33.80
2024-04-21T10:10:23.704Z,34.20
2024-04-21T10:12:51.298Z,34.29
2024-04-21T10:15:25.246Z,33.02
2024-04-21T10:17:56.538Z,32.38
2024-04-21T10:20:37.742Z,32.36
2024-04-21T10:23:11.151Z,32.47
2024-04-21T10:25:40.485Z,32.92
2024-04-21T10:28:08.218Z,32.56
2024-04-21T10:30:37.178Z,32.28
2024-04-21T10:33:15.238Z,32.36
2024-04-21T10:35:43.577Z,32.62
2024-04-21T10:38:16.463Z,31.71
2024-04-21T10:40:48.772Z,31.33
2024-04-21T10:43:17.328Z,31.26
2024-04-21T10:45:47.016Z,30.93
2024-04-21T10:48:14.065Z,30.74
2024-04-21T10:50:43.141Z,30.49
2024-04-21T10:53:10.549Z,30.14
2024-04-21T10:55:37.653Z,30.08
2024-04-21T10:58:05.594Z,30.66
2024-04-21T11:00:34.483Z,30.20
2024-04-21T11:03:01.750Z,29.99
2024-04-21T11:05:57.431Z,29.21
2024-04-21T11:08:25.139Z,29.59
2024-04-21T11:10:54.648Z,29.78
2024-04-21T11:13:22.746Z,28.88
2024-04-21T11:15:50.149Z,29.61
2024-04-21T11:18:17.904Z,30.01
2024-04-21T11:20:46.165Z,29.73
2024-04-21T11:23:17.797Z,29.67
2024-04-21T11:25:48.136Z,29.33
2024-04-21T11:28:17.910Z,29.46
2024-04-21T11:30:44.956Z,29.07
2024-04-21T11:33:12.262Z,28.48
2024-04-21T11:35:40.085Z,28.06
2024-04-21T11:38:07.610Z,28.16
2024-04-21T11:40:41.139Z,29.01
2024-04-21T11:43:11.448Z,29.58
2024-04-21T11:45:40.561Z,29.58
2024-04-21T11:48:09.119Z,29.65
2024-04-21T11:50:39.127Z,29.33
2024-04-21T11:53:06.642Z,28.94
2024-04-21T11:55:34.083Z,28.45
2024-04-21T11:58:01.488Z,28.36
2024-04-21T12:00:28.511Z,28.08
2024-04-21T12:02:55.570Z,27.87
2024-04-21T12:05:23.719Z,28.07
2024-04-21T12:07:51.175Z,27.95
2024-04-21T12:10:18.203Z,27.35
2024-04-21T12:12:45.205Z,27.41
2024-04-21T12:15:12.129Z,27.44
2024-04-21T12:17:39.205Z,27.58
2024-04-21T12:20:07.054Z,28.11
2024-04-21T12:22:34.022Z,27.72
2024-04-21T12:25:01.205Z,28.03
2024-04-21T12:27:28.093Z,27.58
2024-04-21T12:29:55.184Z,27.28
2024-04-21T12:32:22.333Z,27.64
2024-04-21T12:34:49.341Z,27.62
2024-04-21T12:37:16.529Z,27.23
2024-04-21T12:39:43.759Z,27.05
2024-04-21T12:42:10.918Z,27.28
2024-04-21T12:44:37.850Z,26.14
2024-04-21T12:47:05.106Z,25.35
2024-04-21T12:49:32.062Z,25.27
2024-04-21T12:51:59.120Z,25.22
2024-04-21T12:54:26.374Z,24.93
2024-04-21T12:56:53.285Z,25.68
2024-04-21T12:59:22.491Z,25.32
2024-04-21T13:01:49.726Z,24.92
2024-04-21T13:04:16.882Z,25.12
2024-04-21T13:06:43.770Z,25.25
2024-04-21T13:09:11.245Z,25.27
2024-04-21T13:11:38.314Z,25.36
2024-04-21T13:14:05.208Z,25.72
2024-04-21T13:16:32.702Z,25.61
2024-04-21T13:18:59.744Z,25.77
2024-04-21T13:21:27.398Z,25.76
2024-04-21T13:23:54.671Z,25.57
2024-04-21T13:26:21.958Z,25.61
2024-04-21T13:28:49.103Z,26.06
2024-04-21T13:31:16.105Z,25.70
2024-04-21T13:33:43.107Z,25.41
2024-04-21T13:36:15.150Z,25.27
2024-04-21T13:38:47.674Z,25.24
2024-04-21T13:41:14.619Z,25.14
2024-04-21T13:43:41.822Z,24.92
2024-04-21T13:46:08.824Z,25.25
2024-04-21T13:48:36.673Z,25.34
2024-04-21T13:51:16.925Z,25.54
2024-04-21T13:53:51.635Z,25.88
2024-04-21T13:56:18.541Z,25.75
2024-04-21T13:58:45.561Z,25.34
2024-04-21T14:01:12.824Z,25.50
2024-04-21T14:03:39.750Z,25.52
2024-04-21T14:06:07.013Z,26.12
2024-04-21T14:08:34.005Z,26.11
2024-04-21T14:11:01.104Z,26.55
2024-04-21T14:13:29.167Z,26.54
2024-04-21T14:15:56.256Z,26.79
2024-04-21T14:18:23.801Z,26.42
2024-04-21T14:20:51.111Z,26.23
2024-04-21T14:23:18.181Z,26.11
2024-04-21T14:25:45.178Z,26.37
2024-04-21T14:28:12.384Z,26.75
2024-04-21T14:30:39.315Z,26.67
2024-04-21T14:33:06.634Z,26.43
2024-04-21T14:35:33.581Z,26.90
2024-04-21T14:38:00.543Z,27.35
2024-04-21T14:40:27.437Z,27.03
2024-04-21T14:42:54.361Z,26.92
2024-04-21T14:45:21.517Z,27.40
2024-04-21T14:47:55.808Z,27.32
2024-04-21T14:50:23.140Z,27.26
2024-04-21T14:52:50.354Z,27.58
2024-04-21T14:55:17.489Z,27.54
2024-04-21T14:57:47.729Z,27.05
2024-04-21T15:00:15.485Z,27.07
2024-04-21T15:02:42.755Z,27.66
2024-04-21T15:05:09.814Z,27.13
2024-04-21T15:07:37.559Z,26.83
2024-04-21T15:10:07.625Z,26.87
2024-04-21T15:12:34.642Z,27.35
2024-04-21T15:15:01.686Z,27.45
2024-04-21T15:17:28.564Z,27.90
2024-04-21T15:19:56.133Z,28.37
2024-04-21T15:22:25.818Z,27.98
2024-04-21T15:24:54.533Z,27.39
2024-04-21T15:27:21.503Z,27.13
2024-04-21T15:29:48.506Z,26.56
2024-04-21T15:32:15.367Z,26.89
2024-04-21T15:34:42.907Z,26.89
2024-04-21T15:37:09.866Z,27.17
2024-04-21T15:39:36.919Z,28.13
2024-04-21T15:42:06.433Z,28.45
2024-04-21T15:44:33.385Z,28.67
2024-04-21T15:47:00.378Z,28.81
2024-04-21T15:49:27.529Z,29.59
2024-04-21T15:51:55.542Z,29.69
2024-04-21T15:54:22.698Z,29.74
2024-04-21T15:56:49.808Z,29.40
2024-04-21T15:59:16.780Z,29.26
2024-04-21T16:01:43.861Z,29.10
2024-04-21T16:04:11.098Z,29.42
2024-04-21T16:06:38.133Z,30.37
2024-04-21T16:09:06.720Z,30.76
2024-04-21T16:11:33.825Z,31.45
2024-04-21T16:14:00.785Z,32.12
2024-04-21T16:16:28.724Z,32.25
2024-04-21T16:18:55.728Z,32.29
2024-04-21T16:21:22.978Z,32.82
2024-04-21T16:23:49.934Z,33.42
2024-04-21T16:26:18.100Z,33.87
2024-04-21T16:28:45.410Z,34.31
2024-04-21T16:31:13.085Z,35.18
2024-04-21T16:33:40.426Z,35.62
2024-04-21T16:36:08.546Z,35.96
2024-04-21T16:38:38.493Z,36.57
2024-04-21T16:41:05.786Z,37.33
2024-04-21T16:43:35.111Z,37.61
2024-04-21T16:46:06.947Z,38.06
2024-04-21T16:48:34.374Z,38.16
2024-04-21T16:51:01.791Z,38.57
2024-04-21T16:53:29.249Z,39.01
2024-04-21T16:55:57.164Z,39.11
2024-04-21T16:58:32.735Z,39.29
2024-04-21T17:01:02.908Z,40.19
2024-04-21T17:03:33.831Z,40.81
2024-04-21T17:06:03.012Z,41.66
2024-04-21T17:08:39.295Z,42.71
2024-04-21T17:11:06.589Z,43.17
2024-04-21T17:13:34.427Z,44.04
2024-04-21T17:16:02.799Z,44.03
2024-04-21T17:18:30.808Z,44.32
2024-04-21T17:20:57.715Z,44.63
2024-04-21T17:23:24.658Z,45.33
2024-04-21T17:25:51.538Z,45.81
2024-04-21T17:28:18.470Z,46.10
2024-04-21T17:30:45.515Z,46.30
2024-04-21T17:33:12.649Z,47.08
2024-04-21T17:35:39.722Z,47.43
2024-04-21T17:38:06.764Z,47.93
2024-04-21T17:40:33.932Z,48.05
2024-04-21T17:43:00.917Z,48.53
2024-04-21T17:45:31.422Z,48.50
2024-04-21T17:47:59.993Z,48.38
2024-04-21T17:50:27.145Z,48.97
2024-04-21T17:52:54.594Z,49.26
2024-04-21T17:55:21.487Z,49.46
2024-04-21T17:57:48.408Z,49.96
2024-04-21T18:00:15.466Z,50.28
2024-04-21T18:02:42.514Z,50.46
2024-04-21T18:05:10.403Z,50.64
2024-04-21T18:07:39.188Z,51.02
2024-04-21T18:10:08.482Z,51.55
2024-04-21T18:12:35.619Z,51.74
2024-04-21T18:15:04.573Z,51.71
2024-04-21T18:17:31.659Z,52.15
2024-04-21T18:19:58.693Z,52.55
2024-04-21T18:22:25.721Z,53.00
2024-04-21T18:24:52.642Z,53.05
2024-04-21T18:27:19.688Z,53.32
2024-04-21T18:29:46.591Z,53.38
2024-04-21T18:32:13.955Z,53.72
2024-04-21T18:34:41.450Z,53.99
2024-04-21T18:37:08.331Z,54.09
2024-04-21T18:39:35.248Z,54.18
2024-04-21T18:42:03.280Z,54.37
2024-04-21T18:44:30.567Z,54.47
2024-04-21T18:46:57.919Z,54.56
2024-04-21T18:49:25.932Z,54.58
2024-04-21T18:51:52.970Z,54.67
2024-04-21T18:54:22.369Z,54.54
2024-04-21T18:56:49.488Z,54.69
2024-04-21T18:59:16.413Z,54.62
2024-04-21T19:01:43.622Z,54.97
2024-04-21T19:04:10.616Z,55.12
2024-04-21T19:06:37.746Z,55.25
2024-04-21T19:09:04.916Z,55.49
2024-04-21T19:11:33.132Z,55.75
2024-04-21T19:14:00.288Z,55.61
2024-04-21T19:16:31.440Z,55.63
2024-04-21T19:18:58.920Z,55.79
2024-04-21T19:21:26.156Z,56.03
2024-04-21T19:23:53.395Z,56.26
2024-04-21T19:26:20.354Z,56.30
2024-04-21T19:28:48.777Z,56.47
2024-04-21T19:31:16.630Z,56.62
2024-04-21T19:33:44.420Z,56.88
2024-04-21T19:36:11.283Z,57.11
2024-04-21T19:38:38.179Z,57.28
2024-04-21T19:41:05.075Z,57.35
2024-04-21T19:43:32.132Z,57.62
2024-04-21T19:46:02.552Z,57.68
2024-04-21T19:48:29.618Z,57.98
2024-04-21T19:51:00.595Z,58.17
2024-04-21T19:53:28.227Z,58.32
2024-04-21T19:55:55.394Z,58.29
2024-04-21T19:58:22.341Z,58.55
2024-04-21T20:00:52.363Z,58.70
2024-04-21T20:03:19.407Z,58.70
2024-04-21T20:05:46.352Z,58.71
2024-04-21T20:08:17.638Z,58.78
2024-04-21T20:10:44.743Z,58.98
2024-04-21T20:13:11.964Z,59.15
2024-04-21T20:15:57.329Z,59.15
2024-04-21T20:18:36.570Z,59.07
2024-04-21T20:21:05.130Z,59.10
2024-04-21T20:23:32.727Z,59.31
2024-04-21T20:26:04.743Z,59.45
2024-04-21T20:28:31.917Z,59.43
2024-04-21T20:30:58.857Z,59.59
2024-04-21T20:33:26.426Z,59.89
2024-04-21T20:35:53.503Z,59.95
2024-04-21T20:38:20.430Z,60.12
2024-04-21T20:40:48.503Z,60.03
2024-04-21T20:43:15.514Z,60.26
2024-04-21T20:45:42.449Z,60.25
2024-04-21T20:48:09.514Z,60.40
2024-04-21T20:50:36.646Z,60.50
2024-04-21T20:53:03.837Z,60.57
2024-04-21T20:55:30.830Z,60.79
2024-04-21T20:57:57.871Z,61.03
2024-04-21T21:00:25.006Z,61.26
2024-04-21T21:02:52.120Z,61.06
2024-04-21T21:05:19.117Z,61.39
2024-04-21T21:07:46.043Z,61.46
2024-04-21T21:10:13.144Z,61.40
2024-04-21T21:12:40.007Z,61.56
2024-04-21T21:15:07.598Z,61.70
2024-04-21T21:17:37.774Z,61.58
2024-04-21T21:20:05.823Z,61.60
2024-04-21T21:22:32.758Z,61.74
2024-04-21T21:24:59.707Z,61.78
2024-04-21T21:27:26.700Z,62.17
2024-04-21T21:29:53.883Z,62.47
2024-04-21T21:32:20.925Z,62.33
2024-04-21T21:34:47.871Z,62.28
2024-04-21T21:37:15.069Z,62.36
2024-04-21T21:39:42.115Z,62.49
2024-04-21T21:42:09.250Z,62.69
2024-04-21T21:44:36.467Z,62.78
2024-04-21T21:47:03.370Z,62.42
2024-04-21T21:49:30.329Z,62.71
2024-04-21T21:51:57.650Z,62.53
2024-04-21T21:54:27.395Z,62.68
2024-04-21T21:56:54.507Z,62.68
2024-04-21T21:59:25.149Z,62.60
2024-04-21T22:01:52.386Z,62.67
2024-04-21T22:04:19.328Z,62.80
2024-04-21T22:06:47.271Z,62.83
2024-04-21T22:09:14.244Z,62.84
2024-04-21T22:11:41.145Z,62.71
2024-04-21T22:14:10.081Z,62.84
2024-04-21T22:16:37.365Z,62.87
2024-04-21T22:19:04.477Z,63.11
2024-04-21T22:21:31.389Z,63.56
2024-04-21T22:23:58.246Z,63.56
2024-04-21T22:26:25.521Z,63.37
2024-04-21T22:28:52.443Z,63.31
2024-04-21T22:31:20.130Z,63.24
2024-04-21T22:33:47.407Z,63.22
2024-04-21T22:36:14.401Z,63.13
2024-04-21T22:38:41.496Z,63.16
2024-04-21T22:41:08.472Z,63.32
2024-04-21T22:43:36.100Z,63.36
2024-04-21T22:46:08.027Z,63.51
2024-04-21T22:48:37.062Z,63.47
2024-04-21T22:51:05.894Z,63.60
2024-04-21T22:53:33.040Z,63.76
2024-04-21T22:56:00.240Z,63.63
2024-04-21T22:58:27.470Z,63.70
2024-04-21T23:00:54.636Z,63.80
2024-04-21T23:03:21.748Z,64.11
2024-04-21T23:05:48.784Z,63.99
2024-04-21T23:08:15.888Z,64.06
2024-04-21T23:10:43.049Z,64.08
2024-04-21T23:13:10.472Z,64.49
2024-04-21T23:15:37.482Z,64.54
2024-04-21T23:18:04.989Z,64.83
2024-04-21T23:20:33.492Z,64.99
2024-04-21T23:23:01.661Z,65.02
2024-04-21T23:25:28.591Z,64.81
2024-04-21T23:27:55.622Z,64.96
2024-04-21T23:30:22.755Z,65.00
2024-04-21T23:32:49.881Z,64.98
2024-04-21T23:35:16.941Z,65.29
2024-04-21T23:37:44.129Z,65.36
2024-04-21T23:40:11.198Z,65.65
2024-04-21T23:42:38.217Z,65.69
2024-04-21T23:45:09.251Z,65.67
2024-04-21T23:47:36.768Z,65.83
2024-04-21T23:50:07.713Z,65.86
2024-04-21T23:52:34.606Z,65.70
2024-04-21T23:55:01.545Z,65.98
2024-04-21T23:57:28.430Z,66.20
2024-04-21T23:59:55.720Z,65.65
